Time;durP1;ratioP1;P1;durP2;ratioP2;P2;SDS_P1;SDS_P2;PMS_P1;PMS_P2;Temp;Humidity;BMP_temperature;BMP_pressure;BME280_temperature;BME280_humidity;BME280_pressure;Samples;Min_cycle;Max_cycle;Signal;HPM_P1;HPM_P2
2023/10/23 00:03:53;;;;;;;5.78;1.38;;;;;;;12.02;100.00;98157.84;15272184;19;20051;-61
2023/10/23 00:09:18;;;;;;;4.57;1.30;;;;;;;11.99;100.00;98157.38;15270958;19;20448;-57
2023/10/23 00:14:44;;;;;;;5.18;1.60;;;;;;;11.94;100.00;98157.03;15264723;19;20018;-58
2023/10/23 00:20:19;;;;;;;5.53;1.50;;;;;;;11.88;100.00;98166.66;15271386;19;20014;-56
2023/10/23 00:25:44;;;;;;;5.97;1.63;;;;;;;11.77;100.00;98175.16;15269015;19;20017;-56
2023/10/23 00:31:10;;;;;;;4.97;1.50;;;;;;;11.67;100.00;98170.81;15265681;19;20022;-57
2023/10/23 00:36:39;;;;;;;5.93;1.60;;;;;;;11.61;100.00;98179.59;15268657;19;20014;-57
2023/10/23 00:42:06;;;;;;;6.40;1.52;;;;;;;11.57;100.00;98186.34;15271401;19;20010;-57
2023/10/23 00:47:32;;;;;;;5.50;1.65;;;;;;;11.55;100.00;98189.22;15263293;19;20011;-58
2023/10/23 00:52:59;;;;;;;5.45;1.40;;;;;;;11.56;100.00;98192.78;15265817;19;20078;-58
2023/10/23 00:58:26;;;;;;;5.32;1.60;;;;;;;11.57;100.00;98195.28;15269599;19;20025;-57
2023/10/23 01:03:51;;;;;;;5.95;1.67;;;;;;;11.55;100.00;98194.59;15266585;19;20015;-54
2023/10/23 01:09:20;;;;;;;4.65;1.40;;;;;;;11.55;100.00;98196.47;15262726;19;20494;-55
2023/10/23 01:14:46;;;;;;;4.18;1.17;;;;;;;11.49;100.00;98202.56;15259504;19;20580;-56
2023/10/23 01:20:21;;;;;;;5.45;1.42;;;;;;;11.44;100.00;98199.53;15259004;19;20015;-57
2023/10/23 01:25:51;;;;;;;3.90;1.30;;;;;;;11.38;100.00;98209.16;15263278;19;20081;-57
2023/10/23 01:31:16;;;;;;;5.20;1.20;;;;;;;11.28;100.00;98209.34;15264203;19;20015;-57
2023/10/23 01:36:41;;;;;;;4.95;1.40;;;;;;;11.20;100.00;98217.47;15267000;19;20018;-59
2023/10/23 01:42:08;;;;;;;4.22;1.13;;;;;;;11.21;100.00;98213.75;15279956;19;20022;-58
2023/10/23 01:47:33;;;;;;;5.25;1.30;;;;;;;11.15;100.00;98214.41;15280483;19;20868;-58
2023/10/23 01:52:58;;;;;;;4.35;1.23;;;;;;;11.04;100.00;98218.31;15268175;19;20751;-59
2023/10/23 01:58:25;;;;;;;2.58;0.90;;;;;;;10.92;100.00;98220.50;15281841;19;20022;-58
2023/10/23 02:03:51;;;;;;;4.25;0.98;;;;;;;10.79;100.00;98216.44;15274950;19;20014;-59
2023/10/23 02:09:16;;;;;;;6.03;1.17;;;;;;;10.70;100.00;98233.63;15279127;19;20102;-57
2023/10/23 02:14:44;;;;;;;3.22;0.95;;;;;;;10.64;100.00;98223.53;15276541;19;20018;-57
2023/10/23 02:20:10;;;;;;;6.57;1.50;;;;;;;10.56;100.00;98227.03;15276161;19;20026;-60
2023/10/23 02:25:35;;;;;;;4.63;1.15;;;;;;;10.51;100.00;98233.94;15266898;19;20598;-57
2023/10/23 02:31:06;;;;;;;4.43;1.40;;;;;;;10.47;100.00;98245.03;15275414;19;20022;-56
2023/10/23 02:36:32;;;;;;;3.92;1.20;;;;;;;10.45;100.00;98241.66;15278647;19;20014;-58
2023/10/23 02:41:57;;;;;;;4.25;1.48;;;;;;;10.42;100.00;98243.84;15276143;19;20384;-58
2023/10/23 02:47:26;;;;;;;6.38;1.60;;;;;;;10.37;100.00;98252.38;15272382;19;20031;-57
2023/10/23 02:52:50;;;;;;;6.30;1.40;;;;;;;10.31;100.00;98263.81;15270943;19;20022;-57
2023/10/23 02:58:16;;;;;;;4.80;1.27;;;;;;;10.29;100.00;98263.16;15264537;19;20085;-55
2023/10/23 03:03:44;;;;;;;5.47;1.52;;;;;;;10.27;100.00;98274.06;15262873;19;20025;-56
2023/10/23 03:09:12;;;;;;;5.07;1.42;;;;;;;10.25;100.00;98265.28;15265822;19;20062;-54
2023/10/23 03:14:40;;;;;;;6.05;1.70;;;;;;;10.23;100.00;98275.38;15256768;19;20110;-53
2023/10/23 03:20:08;;;;;;;4.97;1.27;;;;;;;10.13;100.00;98280.91;15261971;19;20014;-53
2023/10/23 03:25:33;;;;;;;4.30;1.33;;;;;;;10.05;100.00;98288.09;15260615;19;20019;-58
2023/10/23 03:30:58;;;;;;;5.82;1.50;;;;;;;9.97;100.00;98288.91;15267197;19;20059;-56
2023/10/23 03:36:25;;;;;;;6.43;1.77;;;;;;;9.93;100.00;98295.63;15273895;19;20509;-54
2023/10/23 03:41:51;;;;;;;5.38;1.45;;;;;;;9.86;100.00;98304.34;15268380;19;20047;-57
2023/10/23 03:47:18;;;;;;;4.80;1.42;;;;;;;9.77;100.00;98305.28;15271061;19;20925;-57
2023/10/23 03:52:45;;;;;;;6.95;1.48;;;;;;;9.71;100.00;98308.59;15269229;19;20046;-56
2023/10/23 03:58:09;;;;;;;6.72;1.52;;;;;;;9.63;100.00;98308.56;15269585;19;20018;-54
2023/10/23 04:03:35;;;;;;;5.97;1.30;;;;;;;9.56;100.00;98317.28;15261307;19;20025;-53
2023/10/23 04:09:03;;;;;;;5.15;1.42;;;;;;;9.53;100.00;98325.66;15265165;19;20066;-52
2023/10/23 04:14:29;;;;;;;4.65;1.30;;;;;;;9.46;100.00;98321.03;15266347;19;20015;-57
2023/10/23 04:19:54;;;;;;;4.70;1.30;;;;;;;9.39;100.00;98328.91;15268274;19;20014;-55
2023/10/23 04:25:22;;;;;;;6.45;1.48;;;;;;;9.36;100.00;98326.50;15267510;19;20038;-55
2023/10/23 04:30:46;;;;;;;5.60;1.60;;;;;;;9.34;100.00;98331.22;15270647;19;20026;-56
2023/10/23 04:36:11;;;;;;;5.72;1.63;;;;;;;9.32;100.00;98335.91;15262401;19;20456;-54
2023/10/23 04:41:38;;;;;;;5.78;1.42;;;;;;;9.25;100.00;98336.50;14759054;19;10001254;-53
2023/10/23 04:47:03;;;;;;;7.78;1.70;;;;;;;9.18;100.00;98342.66;15272060;19;20074;-54
2023/10/23 04:52:28;;;;;;;6.38;1.77;;;;;;;9.13;100.00;98342.28;15269895;19;20036;-54
2023/10/23 04:57:56;;;;;;;8.15;1.67;;;;;;;9.13;100.00;98348.50;15273024;19;20355;-52
2023/10/23 05:03:20;;;;;;;6.10;1.50;;;;;;;9.09;100.00;98349.81;15269179;19;20098;-57
2023/10/23 05:08:45;;;;;;;7.03;1.67;;;;;;;9.08;100.00;98350.81;15268080;19;20073;-54
2023/10/23 05:14:13;;;;;;;7.55;1.60;;;;;;;9.01;100.00;98349.72;15271250;19;20429;-55
2023/10/23 05:19:38;;;;;;;5.03;1.50;;;;;;;8.96;100.00;98352.03;15284082;19;20014;-53
2023/10/23 05:25:02;;;;;;;6.35;1.40;;;;;;;8.91;100.00;98361.38;15285767;19;20014;-54
2023/10/23 05:30:30;;;;;;;9.23;1.80;;;;;;;8.88;100.00;98356.31;15331585;19;20680;-57
2023/10/23 05:36:04;;;;;;;5.45;1.48;;;;;;;8.84;100.00;98368.38;15296032;19;20039;-57
2023/10/23 05:41:29;;;;;;;5.93;1.50;;;;;;;8.79;100.00;98370.66;15277741;19;20409;-55
2023/10/23 05:46:56;;;;;;;6.65;1.50;;;;;;;8.77;100.00;98380.72;15283220;19;20035;-58
2023/10/23 05:52:21;;;;;;;4.32;1.30;;;;;;;8.72;100.00;98385.69;15278861;19;20022;-57
2023/10/23 05:57:46;;;;;;;6.10;1.60;;;;;;;8.67;100.00;98393.34;15283957;19;20017;-58
2023/10/23 06:03:14;;;;;;;4.97;1.30;;;;;;;8.57;100.00;98401.47;15279887;19;20466;-57
2023/10/23 06:08:38;;;;;;;6.57;1.60;;;;;;;8.50;100.00;98403.06;15282238;19;20010;-57
2023/10/23 06:14:03;;;;;;;7.57;1.50;;;;;;;8.50;100.00;98398.53;15265170;19;20046;-57
2023/10/23 06:19:32;;;;;;;7.75;1.80;;;;;;;8.52;100.00;98407.31;15278769;19;20082;-56
2023/10/23 06:24:56;;;;;;;5.70;1.30;;;;;;;8.49;100.00;98404.91;15274936;19;20024;-55
2023/10/23 06:30:20;;;;;;;7.75;1.63;;;;;;;8.55;100.00;98411.50;15278776;19;20077;-59
2023/10/23 06:35:48;;;;;;;9.90;1.40;;;;;;;8.60;100.00;98418.13;15275910;19;20051;-57
2023/10/23 06:41:13;;;;;;;7.95;1.50;;;;;;;8.62;100.00;98409.91;15278849;19;20074;-57
2023/10/23 06:46:38;;;;;;;7.78;1.52;;;;;;;8.63;100.00;98420.53;15276910;19;20017;-57
2023/10/23 06:52:05;;;;;;;6.05;1.45;;;;;;;8.68;100.00;98419.22;15273385;19;20089;-57
2023/10/23 06:57:30;;;;;;;4.60;1.35;;;;;;;8.74;100.00;98432.06;15276115;19;20516;-57
2023/10/23 07:02:54;;;;;;;4.53;1.30;;;;;;;8.79;100.00;98427.06;15273933;19;20090;-60
2023/10/23 07:08:22;;;;;;;6.40;1.45;;;;;;;8.87;100.00;98440.63;15276242;19;20035;-56
2023/10/23 07:13:46;;;;;;;4.47;1.20;;;;;;;8.96;100.00;98433.47;15269922;19;20014;-57
2023/10/23 07:19:18;;;;;;;6.35;1.40;;;;;;;9.07;100.00;98440.50;15274958;19;20084;-56
2023/10/23 07:24:45;;;;;;;3.80;1.07;;;;;;;9.17;100.00;98443.97;15269321;19;20035;-56
2023/10/23 07:30:11;;;;;;;4.65;1.30;;;;;;;9.27;100.00;98449.28;15275669;19;20010;-58
2023/10/23 07:35:36;;;;;;;5.55;1.27;;;;;;;9.35;100.00;98449.34;15295580;19;19926;-60
2023/10/23 07:41:13;;;;;;;4.65;1.10;;;;;;;9.46;100.00;98450.13;15274164;19;20014;-59
2023/10/23 07:46:38;;;;;;;5.43;1.42;;;;;;;9.59;100.00;98447.03;15270057;19;20486;-58
2023/10/23 07:52:03;;;;;;;7.25;1.30;;;;;;;9.70;100.00;98449.53;15273480;19;20018;-59
2023/10/23 07:57:32;;;;;;;5.95;1.77;;;;;;;9.84;100.00;98451.63;15271509;19;20057;-58
2023/10/23 08:02:57;;;;;;;3.92;1.98;;;;;;;9.99;100.00;98453.75;15268681;19;20089;-58
2023/10/23 08:08:21;;;;;;;5.13;1.63;;;;;;;10.14;100.00;98454.91;15271826;19;20018;-60
2023/10/23 08:13:50;;;;;;;4.80;1.33;;;;;;;10.32;100.00;98451.28;15271231;19;20765;-58
2023/10/23 08:19:14;;;;;;;4.25;1.35;;;;;;;10.43;100.00;98444.84;15267314;19;20017;-58
2023/10/23 08:24:39;;;;;;;4.13;1.10;;;;;;;10.57;100.00;98435.31;15270270;19;20046;-59
2023/10/23 08:30:07;;;;;;;3.83;1.20;;;;;;;10.70;100.00;98433.00;15273879;19;20078;-59
2023/10/23 08:35:32;;;;;;;3.65;1.20;;;;;;;10.86;100.00;98426.00;15270088;19;20347;-58
2023/10/23 08:40:56;;;;;;;2.83;1.00;;;;;;;11.00;100.00;98411.88;15271753;19;20019;-58
2023/10/23 08:46:24;;;;;;;3.42;1.10;;;;;;;11.11;100.00;98402.66;15270874;19;20075;-59
2023/10/23 08:51:52;;;;;;;3.15;1.10;;;;;;;11.26;100.00;98392.06;15277867;19;20018;-57
2023/10/23 08:57:17;;;;;;;5.55;1.30;;;;;;;11.37;100.00;98386.31;15286660;19;20010;-59
2023/10/23 09:02:44;;;;;;;4.30;1.48;;;;;;;11.50;100.00;98393.09;15283523;19;20471;-58
2023/10/23 09:08:10;;;;;;;3.03;1.10;;;;;;;11.69;100.00;98397.31;15286127;19;20010;-59
2023/10/23 09:13:38;;;;;;;5.72;1.13;;;;;;;11.85;100.00;98382.94;15279191;19;20022;-59
2023/10/23 09:19:06;;;;;;;3.47;1.10;;;;;;;11.97;100.00;98378.88;15281373;19;20021;-57
2023/10/23 09:24:31;;;;;;;3.75;1.30;;;;;;;12.12;100.00;98368.25;15275968;19;20025;-56
2023/10/23 09:29:55;;;;;;;3.88;1.17;;;;;;;12.28;100.00;98367.38;15284349;19;20488;-60
2023/10/23 09:35:24;;;;;;;4.80;1.10;;;;;;;12.39;100.00;98354.50;15278559;19;20733;-60
2023/10/23 09:40:49;;;;;;;3.05;0.90;;;;;;;12.56;100.00;98358.81;15284188;19;20019;-58
2023/10/23 09:46:15;;;;;;;2.17;0.90;;;;;;;12.76;100.00;98352.97;15283434;19;20018;-59
2023/10/23 09:51:45;;;;;;;1.45;0.50;;;;;;;12.92;100.00;98336.66;15282406;19;20020;-56
2023/10/23 09:57:12;;;;;;;1.90;0.60;;;;;;;13.05;100.00;98319.84;15276895;19;20015;-56
2023/10/23 10:02:43;;;;;;;1.55;0.70;;;;;;;13.23;100.00;98326.81;15279324;19;20375;-58
2023/10/23 10:08:17;;;;;;;1.75;0.70;;;;;;;13.40;100.00;98297.81;15282796;19;20031;-56
2023/10/23 10:13:45;;;;;;;1.40;0.63;;;;;;;13.54;100.00;98291.59;15277844;19;20018;-54
2023/10/23 10:19:16;;;;;;;1.58;0.80;;;;;;;13.66;100.00;98283.84;15278697;19;20025;-56
2023/10/23 10:24:44;;;;;;;2.33;0.90;;;;;;;13.82;100.00;98266.59;15278003;19;20022;-57
2023/10/23 10:30:09;;;;;;;2.50;0.85;;;;;;;13.97;100.00;98263.91;15274703;19;20033;-55
2023/10/23 10:35:35;;;;;;;1.95;0.85;;;;;;;14.09;100.00;98266.97;15275742;19;20078;-54
2023/10/23 10:41:06;;;;;;;1.58;0.65;;;;;;;14.25;100.00;98260.50;15277505;19;20051;-56
2023/10/23 10:46:32;;;;;;;2.17;0.70;;;;;;;14.40;100.00;98246.09;15279522;19;20476;-57
2023/10/23 10:51:56;;;;;;;2.38;0.75;;;;;;;14.45;100.00;98239.06;15279240;19;20018;-58
2023/10/23 10:57:23;;;;;;;3.53;0.90;;;;;;;14.63;100.00;98235.09;15274814;19;20011;-58
2023/10/23 11:02:49;;;;;;;2.97;0.88;;;;;;;14.65;100.00;98233.03;15267703;19;20010;-58
2023/10/23 11:08:14;;;;;;;2.80;1.05;;;;;;;14.64;100.00;98220.53;15277220;19;20018;-56
2023/10/23 11:13:43;;;;;;;1.88;0.85;;;;;;;14.69;100.00;98209.13;15272792;19;20028;-59
2023/10/23 11:19:07;;;;;;;2.05;0.90;;;;;;;14.81;100.00;98210.28;15274774;19;20027;-58
2023/10/23 11:24:32;;;;;;;2.92;0.90;;;;;;;14.92;100.00;98198.06;15273568;19;20094;-57
2023/10/23 11:29:59;;;;;;;2.15;0.90;;;;;;;15.04;100.00;98193.78;15277405;19;20025;-57
2023/10/23 11:35:24;;;;;;;3.30;0.90;;;;;;;15.16;100.00;98188.69;15266921;19;20010;-57
2023/10/23 11:40:49;;;;;;;1.83;0.60;;;;;;;15.31;100.00;98182.28;15273476;19;20020;-58
2023/10/23 11:46:17;;;;;;;2.15;0.85;;;;;;;15.49;100.00;98168.22;15273131;19;20016;-58
2023/10/23 11:51:41;;;;;;;3.20;0.90;;;;;;;15.56;100.00;98166.41;15271490;19;20373;-58
2023/10/23 11:57:07;;;;;;;3.15;1.00;;;;;;;15.65;100.00;98169.78;15271409;19;20014;-59
2023/10/23 12:02:34;;;;;;;3.80;0.90;;;;;;;15.80;100.00;98166.94;15270603;19;20039;-57
2023/10/23 12:08:01;;;;;;;4.40;1.15;;;;;;;15.88;100.00;98155.94;15267543;19;20020;-60
2023/10/23 12:13:25;;;;;;;2.28;0.95;;;;;;;15.96;100.00;98144.88;15272700;19;20018;-58
2023/10/23 12:18:53;;;;;;;3.13;1.10;;;;;;;16.08;100.00;98141.56;15271728;19;20082;-55
2023/10/23 12:24:18;;;;;;;1.70;0.77;;;;;;;16.13;100.00;98131.78;15269818;19;20014;-57
2023/10/23 12:29:49;;;;;;;3.15;0.82;;;;;;;16.19;100.00;98135.56;15257681;19;20086;-56
2023/10/23 12:35:19;;;;;;;2.67;0.82;;;;;;;16.39;100.00;98127.44;15264543;19;20380;-57
2023/10/23 12:40:50;;;;;;;4.45;1.10;;;;;;;16.57;100.00;98134.19;15261255;19;20051;-54
2023/10/23 12:46:16;;;;;;;3.40;1.30;;;;;;;16.64;100.00;98137.75;15270752;19;20275;-53
2023/10/23 12:51:43;;;;;;;3.38;1.20;;;;;;;16.79;100.00;98129.38;15270856;19;20031;-53
2023/10/23 12:57:08;;;;;;;4.78;1.30;;;;;;;16.86;100.00;98115.78;15269028;19;20039;-56
2023/10/23 13:02:33;;;;;;;2.63;1.00;;;;;;;16.91;100.00;98102.41;15270211;19;20067;-52
2023/10/23 13:08:01;;;;;;;3.80;0.93;;;;;;;17.06;100.00;98088.59;15265158;19;20547;-56
2023/10/23 13:13:28;;;;;;;2.22;0.90;;;;;;;17.13;100.00;98085.84;15260492;19;20408;-52
2023/10/23 13:18:53;;;;;;;1.80;0.73;;;;;;;17.20;100.00;98082.09;15265994;19;20014;-54
2023/10/23 13:24:20;;;;;;;2.28;0.85;;;;;;;17.17;100.00;98077.06;15270248;19;20019;-56
2023/10/23 13:29:51;;;;;;;2.47;0.90;;;;;;;17.09;100.00;98078.09;15261339;19;20014;-57
2023/10/23 13:35:17;;;;;;;1.88;0.77;;;;;;;17.07;100.00;98072.03;15267895;19;20014;-52
2023/10/23 13:40:44;;;;;;;1.50;0.60;;;;;;;17.06;100.00;98069.53;15284711;19;20021;-52
2023/10/23 13:46:10;;;;;;;1.50;0.52;;;;;;;17.13;100.00;98064.91;15279586;19;20011;-57
2023/10/23 13:51:35;;;;;;;3.45;0.90;;;;;;;17.18;100.00;98062.41;15281944;19;20081;-51
2023/10/23 13:57:04;;;;;;;2.33;0.80;;;;;;;17.11;100.00;98056.09;15273862;19;20017;-53
2023/10/23 14:02:35;;;;;;;2.42;0.80;;;;;;;17.04;100.00;98047.13;15279783;19;20021;-52
2023/10/23 14:08:01;;;;;;;4.50;0.88;;;;;;;16.96;100.00;98047.38;15275983;19;20010;-55
2023/10/23 14:13:28;;;;;;;1.70;0.80;;;;;;;16.87;100.00;98038.56;15277255;19;20028;-57
2023/10/23 14:18:54;;;;;;;3.38;1.23;;;;;;;16.75;100.00;98036.47;15278018;19;20014;-56
2023/10/23 14:24:21;;;;;;;3.03;1.15;;;;;;;16.69;100.00;98025.59;15277519;19;20010;-54
2023/10/23 14:29:56;;;;;;;3.17;1.00;;;;;;;16.61;100.00;98024.78;15275242;19;20482;-55
2023/10/23 14:35:22;;;;;;;3.25;0.90;;;;;;;16.55;100.00;98025.59;15278426;19;20013;-55
2023/10/23 14:40:47;;;;;;;3.22;1.00;;;;;;;16.53;100.00;98016.81;15279978;19;20491;-53
2023/10/23 14:46:17;;;;;;;3.65;1.10;;;;;;;16.47;100.00;98004.06;15272185;19;20028;-52
2023/10/23 14:51:41;;;;;;;2.75;0.88;;;;;;;16.33;100.00;97998.63;15279321;19;20022;-52
2023/10/23 14:57:07;;;;;;;3.83;1.10;;;;;;;16.17;100.00;97980.84;15272990;19;20017;-53
2023/10/23 15:02:34;;;;;;;3.65;1.17;;;;;;;15.99;100.00;97992.34;15277557;19;20021;-55
2023/10/23 15:08:00;;;;;;;3.10;1.08;;;;;;;15.75;100.00;97982.88;15270241;19;20021;-54
2023/10/23 15:13:25;;;;;;;3.70;1.13;;;;;;;15.49;100.00;97980.91;15273948;19;20014;-51
2023/10/23 15:18:53;;;;;;;3.03;1.10;;;;;;;15.24;100.00;97978.72;15267497;19;20009;-53
2023/10/23 15:24:18;;;;;;;2.58;1.10;;;;;;;15.05;100.00;97966.75;15275992;19;20031;-57
2023/10/23 15:29:49;;;;;;;3.53;1.00;;;;;;;14.79;100.00;97960.97;15270802;19;20679;-57
2023/10/23 15:35:16;;;;;;;3.08;1.10;;;;;;;14.66;100.00;97958.16;15266014;19;20031;-55
2023/10/23 15:40:42;;;;;;;3.35;1.10;;;;;;;14.49;100.00;97953.06;15273393;19;20018;-56
2023/10/23 15:46:07;;;;;;;5.32;1.08;;;;;;;14.32;100.00;97946.25;15271209;19;20370;-52
2023/10/23 15:51:35;;;;;;;3.22;1.00;;;;;;;14.13;100.00;97924.25;15269111;19;20082;-54
2023/10/23 15:57:03;;;;;;;4.05;0.90;;;;;;;13.96;100.00;97920.97;15267793;19;20094;-56
2023/10/23 16:02:29;;;;;;;3.10;0.98;;;;;;;13.82;100.00;97930.00;15271116;19;20018;-56
2023/10/23 16:07:57;;;;;;;4.50;1.10;;;;;;;13.69;100.00;97931.56;15266352;19;20014;-51
2023/10/23 16:13:24;;;;;;;5.55;1.20;;;;;;;13.54;100.00;97925.38;15271635;19;20046;-56
2023/10/23 16:18:56;;;;;;;4.45;1.40;;;;;;;13.43;100.00;97921.31;15267685;19;20078;-51
2023/10/23 16:24:24;;;;;;;3.88;1.30;;;;;;;13.34;100.00;97911.63;15265610;19;20075;-55
2023/10/23 16:29:49;;;;;;;3.25;1.02;;;;;;;13.26;100.00;97921.50;15267936;19;20014;-54
2023/10/23 16:35:14;;;;;;;4.70;1.40;;;;;;;13.18;100.00;97921.63;15269142;19;20018;-56
2023/10/23 16:40:41;;;;;;;3.92;1.50;;;;;;;13.10;100.00;97922.59;15270642;19;20011;-52
2023/10/23 16:46:10;;;;;;;4.25;1.30;;;;;;;13.02;100.00;97901.06;15268403;19;20488;-53
2023/10/23 16:51:36;;;;;;;3.97;1.10;;;;;;;12.95;100.00;97894.72;15267919;19;20082;-52
2023/10/23 16:57:04;;;;;;;4.28;1.20;;;;;;;12.89;100.00;97898.19;15262200;19;20025;-55
2023/10/23 17:02:30;;;;;;;4.07;1.30;;;;;;;12.79;100.00;97882.25;15268233;19;20353;-53
2023/10/23 17:07:54;;;;;;;3.25;1.40;;;;;;;12.69;100.00;97876.31;15266791;19;20444;-56
2023/10/23 17:13:22;;;;;;;8.18;1.52;;;;;;;12.60;100.00;97883.69;15282024;19;20347;-53
2023/10/23 17:18:48;;;;;;;4.65;1.40;;;;;;;12.50;100.00;97892.09;15279657;19;20370;-52
2023/10/23 17:24:14;;;;;;;3.95;1.40;;;;;;;12.39;100.00;97884.47;15281879;19;20018;-53
2023/10/23 17:29:42;;;;;;;6.80;1.75;;;;;;;12.27;100.00;97884.91;15265209;19;20014;-53
2023/10/23 17:35:07;;;;;;;6.25;1.80;;;;;;;12.17;100.00;97879.78;15278057;19;20022;-54
2023/10/23 17:40:32;;;;;;;6.03;1.60;;;;;;;12.10;100.00;97884.25;15260476;19;20082;-51
2023/10/23 17:46:04;;;;;;;6.07;1.60;;;;;;;12.03;100.00;97883.28;15280884;19;20113;-51
2023/10/23 17:51:29;;;;;;;4.55;1.42;;;;;;;11.98;100.00;97902.75;15282152;19;20015;-52
2023/10/23 17:56:55;;;;;;;3.40;1.40;;;;;;;11.93;100.00;97897.03;15280042;19;20011;-52
2023/10/23 18:02:22;;;;;;;3.85;1.20;;;;;;;11.91;100.00;97882.03;15278096;19;20463;-51
2023/10/23 18:07:47;;;;;;;4.43;1.45;;;;;;;11.87;100.00;97877.03;15282056;19;20026;-58
2023/10/23 18:13:13;;;;;;;6.13;1.40;;;;;;;11.84;100.00;97860.34;15281271;19;20313;-50
2023/10/23 18:18:44;;;;;;;4.70;1.50;;;;;;;11.80;100.00;97859.88;15280755;19;20081;-53
2023/10/23 18:24:12;;;;;;;4.32;1.55;;;;;;;11.79;100.00;97855.47;15277021;19;20018;-52
